sensor_id;sensor_type;location;lat;lon;timestamp;P1;P2;P0
39714;PMS5003;54166;53.172;-6.552;2022-11-20T00:01:19;1;1;
39714;PMS5003;54166;53.172;-6.552;2022-11-20T00:03:48;2;1;
39714;PMS5003;54166;53.172;-6.552;2022-11-20T00:06:17;0;0;
39714;PMS5003;54166;53.172;-6.552;2022-11-20T00:08:46;1;1;
39714;PMS5003;54166;53.172;-6.552;2022-11-20T00:11:14;1;1;
39714;PMS5003;54166;53.172;-6.552;2022-11-20T00:13:44;1;1;
39714;PMS5003;54166;53.172;-6.552;2022-11-20T00:16:13;0;0;
39714;PMS5003;54166;53.172;-6.552;2022-11-20T00:18:41;0;0;
39714;PMS5003;54166;53.172;-6.552;2022-11-20T00:21:09;2;1;
39714;PMS5003;54166;53.172;-6.552;2022-11-20T00:23:38;1;1;
39714;PMS5003;54166;53.172;-6.552;2022-11-20T00:26:05;3;2;
39714;PMS5003;54166;53.172;-6.552;2022-11-20T00:28:34;2;2;
39714;PMS5003;54166;53.172;-6.552;2022-11-20T00:31:01;1;1;
39714;PMS5003;54166;53.172;-6.552;2022-11-20T00:33:30;1;1;
39714;PMS5003;54166;53.172;-6.552;2022-11-20T00:35:59;0;0;
39714;PMS5003;54166;53.172;-6.552;2022-11-20T00:38:28;2;1;
39714;PMS5003;54166;53.172;-6.552;2022-11-20T00:40:56;1;1;
39714;PMS5003;54166;53.172;-6.552;2022-11-20T00:43:23;1;1;
39714;PMS5003;54166;53.172;-6.552;2022-11-20T00:45:55;1;1;
39714;PMS5003;54166;53.172;-6.552;2022-11-20T00:48:23;2;2;
39714;PMS5003;54166;53.172;-6.552;2022-11-20T00:50:51;1;1;
39714;PMS5003;54166;53.172;-6.552;2022-11-20T00:53:20;2;2;
39714;PMS5003;54166;53.172;-6.552;2022-11-20T00:55:55;1;1;
39714;PMS5003;54166;53.172;-6.552;2022-11-20T00:58:25;1;1;
39714;PMS5003;54166;53.172;-6.552;2022-11-20T01:00:59;1;1;
39714;PMS5003;54166;53.172;-6.552;2022-11-20T01:03:27;0;0;
39714;PMS5003;54166;53.172;-6.552;2022-11-20T01:05:55;1;1;
39714;PMS5003;54166;53.172;-6.552;2022-11-20T01:08:28;1;1;
39714;PMS5003;54166;53.172;-6.552;2022-11-20T01:10:58;2;1;
39714;PMS5003;54166;53.172;-6.552;2022-11-20T01:13:26;2;1;
39714;PMS5003;54166;53.172;-6.552;2022-11-20T01:15:53;1;1;
39714;PMS5003;54166;53.172;-6.552;2022-11-20T01:18:20;1;1;
39714;PMS5003;54166;53.172;-6.552;2022-11-20T01:20:47;2;1;
39714;PMS5003;54166;53.172;-6.552;2022-11-20T01:23:14;1;1;
39714;PMS5003;54166;53.172;-6.552;2022-11-20T01:25:41;2;2;
39714;PMS5003;54166;53.172;-6.552;2022-11-20T01:28:08;1;1;
39714;PMS5003;54166;53.172;-6.552;2022-11-20T01:30:35;2;2;
39714;PMS5003;54166;53.172;-6.552;2022-11-20T01:33:02;1;1;
39714;PMS5003;54166;53.172;-6.552;2022-11-20T01:35:29;4;3;
39714;PMS5003;54166;53.172;-6.552;2022-11-20T01:37:56;1;1;
39714;PMS5003;54166;53.172;-6.552;2022-11-20T01:40:23;2;2;
39714;PMS5003;54166;53.172;-6.552;2022-11-20T01:42:52;1;1;
39714;PMS5003;54166;53.172;-6.552;2022-11-20T01:46:08;1;1;
39714;PMS5003;54166;53.172;-6.552;2022-11-20T01:48:42;1;1;
39714;PMS5003;54166;53.172;-6.552;2022-11-20T01:51:16;2;2;
39714;PMS5003;54166;53.172;-6.552;2022-11-20T01:53:47;2;2;
39714;PMS5003;54166;53.172;-6.552;2022-11-20T01:56:16;0;0;
39714;PMS5003;54166;53.172;-6.552;2022-11-20T01:58:45;2;2;
39714;PMS5003;54166;53.172;-6.552;2022-11-20T02:01:14;2;2;
39714;PMS5003;54166;53.172;-6.552;2022-11-20T02:03:42;2;1;
39714;PMS5003;54166;53.172;-6.552;2022-11-20T02:06:12;1;1;
39714;PMS5003;54166;53.172;-6.552;2022-11-20T02:08:45;0;0;
39714;PMS5003;54166;53.172;-6.552;2022-11-20T02:11:12;1;1;
39714;PMS5003;54166;53.172;-6.552;2022-11-20T02:13:40;3;2;
39714;PMS5003;54166;53.172;-6.552;2022-11-20T02:16:08;3;2;
39714;PMS5003;54166;53.172;-6.552;2022-11-20T02:18:38;4;2;
39714;PMS5003;54166;53.172;-6.552;2022-11-20T02:21:07;1;1;
39714;PMS5003;54166;53.172;-6.552;2022-11-20T02:24:01;2;2;
39714;PMS5003;54166;53.172;-6.552;2022-11-20T02:26:32;3;3;
39714;PMS5003;54166;53.172;-6.552;2022-11-20T02:29:04;2;2;
39714;PMS5003;54166;53.172;-6.552;2022-11-20T02:31:35;0;0;
39714;PMS5003;54166;53.172;-6.552;2022-11-20T02:34:04;2;1;
39714;PMS5003;54166;53.172;-6.552;2022-11-20T02:36:33;1;1;
39714;PMS5003;54166;53.172;-6.552;2022-11-20T02:39:02;2;2;
39714;PMS5003;54166;53.172;-6.552;2022-11-20T02:41:30;4;3;
39714;PMS5003;54166;53.172;-6.552;2022-11-20T02:43:58;1;1;
39714;PMS5003;54166;53.172;-6.552;2022-11-20T02:46:25;1;1;
39714;PMS5003;54166;53.172;-6.552;2022-11-20T02:48:52;1;1;
39714;PMS5003;54166;53.172;-6.552;2022-11-20T02:51:19;3;3;
39714;PMS5003;54166;53.172;-6.552;2022-11-20T02:53:46;4;3;
39714;PMS5003;54166;53.172;-6.552;2022-11-20T02:56:13;1;1;
39714;PMS5003;54166;53.172;-6.552;2022-11-20T02:58:40;1;1;
39714;PMS5003;54166;53.172;-6.552;2022-11-20T03:01:07;4;2;
39714;PMS5003;54166;53.172;-6.552;2022-11-20T03:03:34;2;2;
39714;PMS5003;54166;53.172;-6.552;2022-11-20T03:06:01;2;1;
39714;PMS5003;54166;53.172;-6.552;2022-11-20T03:08:29;2;2;
39714;PMS5003;54166;53.172;-6.552;2022-11-20T03:10:56;1;1;
39714;PMS5003;54166;53.172;-6.552;2022-11-20T03:13:24;6;2;
39714;PMS5003;54166;53.172;-6.552;2022-11-20T03:15:51;0;0;
39714;PMS5003;54166;53.172;-6.552;2022-11-20T03:18:18;1;1;
39714;PMS5003;54166;53.172;-6.552;2022-11-20T03:20:45;2;2;
39714;PMS5003;54166;53.172;-6.552;2022-11-20T03:23:13;3;3;
39714;PMS5003;54166;53.172;-6.552;2022-11-20T03:25:40;3;2;
39714;PMS5003;54166;53.172;-6.552;2022-11-20T03:28:08;2;2;
39714;PMS5003;54166;53.172;-6.552;2022-11-20T03:30:35;3;2;
39714;PMS5003;54166;53.172;-6.552;2022-11-20T03:33:02;2;2;
39714;PMS5003;54166;53.172;-6.552;2022-11-20T03:35:29;2;2;
39714;PMS5003;54166;53.172;-6.552;2022-11-20T03:37:57;3;1;
39714;PMS5003;54166;53.172;-6.552;2022-11-20T03:40:23;2;2;
39714;PMS5003;54166;53.172;-6.552;2022-11-20T03:42:50;2;1;
39714;PMS5003;54166;53.172;-6.552;2022-11-20T03:45:18;2;2;
39714;PMS5003;54166;53.172;-6.552;2022-11-20T03:47:45;0;0;
39714;PMS5003;54166;53.172;-6.552;2022-11-20T03:50:13;2;1;
39714;PMS5003;54166;53.172;-6.552;2022-11-20T03:52:40;3;2;
39714;PMS5003;54166;53.172;-6.552;2022-11-20T03:55:08;3;3;
39714;PMS5003;54166;53.172;-6.552;2022-11-20T03:57:36;2;1;
39714;PMS5003;54166;53.172;-6.552;2022-11-20T04:00:03;0;0;
39714;PMS5003;54166;53.172;-6.552;2022-11-20T04:02:31;2;2;
39714;PMS5003;54166;53.172;-6.552;2022-11-20T04:04:58;1;1;
39714;PMS5003;54166;53.172;-6.552;2022-11-20T04:07:25;2;2;
39714;PMS5003;54166;53.172;-6.552;2022-11-20T04:09:52;2;1;
39714;PMS5003;54166;53.172;-6.552;2022-11-20T04:12:19;1;1;
39714;PMS5003;54166;53.172;-6.552;2022-11-20T04:14:46;3;2;
39714;PMS5003;54166;53.172;-6.552;2022-11-20T04:17:13;0;0;
39714;PMS5003;54166;53.172;-6.552;2022-11-20T04:19:40;2;1;
39714;PMS5003;54166;53.172;-6.552;2022-11-20T04:22:07;2;2;
39714;PMS5003;54166;53.172;-6.552;2022-11-20T04:24:34;2;2;
39714;PMS5003;54166;53.172;-6.552;2022-11-20T04:27:01;3;2;
39714;PMS5003;54166;53.172;-6.552;2022-11-20T04:29:28;2;1;
39714;PMS5003;54166;53.172;-6.552;2022-11-20T04:31:55;1;1;
39714;PMS5003;54166;53.172;-6.552;2022-11-20T04:34:22;0;0;
39714;PMS5003;54166;53.172;-6.552;2022-11-20T04:36:49;5;1;
39714;PMS5003;54166;53.172;-6.552;2022-11-20T04:39:16;2;1;
39714;PMS5003;54166;53.172;-6.552;2022-11-20T04:41:43;5;3;
39714;PMS5003;54166;53.172;-6.552;2022-11-20T04:44:10;1;0;
39714;PMS5003;54166;53.172;-6.552;2022-11-20T04:46:39;5;3;
39714;PMS5003;54166;53.172;-6.552;2022-11-20T04:49:08;4;1;
39714;PMS5003;54166;53.172;-6.552;2022-11-20T04:51:36;3;1;
39714;PMS5003;54166;53.172;-6.552;2022-11-20T04:54:03;2;2;
39714;PMS5003;54166;53.172;-6.552;2022-11-20T04:56:31;2;2;
39714;PMS5003;54166;53.172;-6.552;2022-11-20T04:58:59;2;2;
39714;PMS5003;54166;53.172;-6.552;2022-11-20T05:01:28;2;2;
39714;PMS5003;54166;53.172;-6.552;2022-11-20T05:03:55;2;1;
39714;PMS5003;54166;53.172;-6.552;2022-11-20T05:06:22;0;0;
39714;PMS5003;54166;53.172;-6.552;2022-11-20T05:08:50;3;3;
39714;PMS5003;54166;53.172;-6.552;2022-11-20T05:11:19;1;1;
39714;PMS5003;54166;53.172;-6.552;2022-11-20T05:13:47;2;1;
39714;PMS5003;54166;53.172;-6.552;2022-11-20T05:16:17;1;0;
39714;PMS5003;54166;53.172;-6.552;2022-11-20T05:18:46;1;1;
39714;PMS5003;54166;53.172;-6.552;2022-11-20T05:21:13;2;2;
39714;PMS5003;54166;53.172;-6.552;2022-11-20T05:23:41;3;1;
39714;PMS5003;54166;53.172;-6.552;2022-11-20T05:26:12;1;1;
39714;PMS5003;54166;53.172;-6.552;2022-11-20T05:28:41;2;1;
39714;PMS5003;54166;53.172;-6.552;2022-11-20T05:31:09;4;1;
39714;PMS5003;54166;53.172;-6.552;2022-11-20T05:33:39;1;1;
39714;PMS5003;54166;53.172;-6.552;2022-11-20T05:36:08;2;2;
39714;PMS5003;54166;53.172;-6.552;2022-11-20T05:38:37;0;0;
39714;PMS5003;54166;53.172;-6.552;2022-11-20T05:41:05;2;2;
39714;PMS5003;54166;53.172;-6.552;2022-11-20T05:43:33;1;0;
39714;PMS5003;54166;53.172;-6.552;2022-11-20T05:46:01;0;0;
39714;PMS5003;54166;53.172;-6.552;2022-11-20T05:48:29;1;1;
39714;PMS5003;54166;53.172;-6.552;2022-11-20T05:50:57;1;1;
39714;PMS5003;54166;53.172;-6.552;2022-11-20T05:53:24;1;1;
39714;PMS5003;54166;53.172;-6.552;2022-11-20T05:55:59;1;1;
39714;PMS5003;54166;53.172;-6.552;2022-11-20T05:58:26;1;0;
39714;PMS5003;54166;53.172;-6.552;2022-11-20T06:01:02;2;1;
39714;PMS5003;54166;53.172;-6.552;2022-11-20T06:03:31;2;2;
39714;PMS5003;54166;53.172;-6.552;2022-11-20T06:05:58;1;1;
39714;PMS5003;54166;53.172;-6.552;2022-11-20T06:08:26;2;1;
39714;PMS5003;54166;53.172;-6.552;2022-11-20T06:10:53;1;1;
39714;PMS5003;54166;53.172;-6.552;2022-11-20T06:13:20;2;1;
39714;PMS5003;54166;53.172;-6.552;2022-11-20T06:15:48;1;0;
39714;PMS5003;54166;53.172;-6.552;2022-11-20T06:18:16;2;1;
39714;PMS5003;54166;53.172;-6.552;2022-11-20T06:20:44;2;1;
39714;PMS5003;54166;53.172;-6.552;2022-11-20T06:23:12;0;0;
39714;PMS5003;54166;53.172;-6.552;2022-11-20T06:25:40;1;1;
39714;PMS5003;54166;53.172;-6.552;2022-11-20T06:28:09;1;1;
39714;PMS5003;54166;53.172;-6.552;2022-11-20T06:30:37;2;1;
39714;PMS5003;54166;53.172;-6.552;2022-11-20T06:33:11;1;1;
39714;PMS5003;54166;53.172;-6.552;2022-11-20T06:35:41;1;1;
39714;PMS5003;54166;53.172;-6.552;2022-11-20T06:38:11;0;0;
39714;PMS5003;54166;53.172;-6.552;2022-11-20T06:40:39;1;1;
39714;PMS5003;54166;53.172;-6.552;2022-11-20T06:43:07;1;1;
39714;PMS5003;54166;53.172;-6.552;2022-11-20T06:45:34;0;0;
39714;PMS5003;54166;53.172;-6.552;2022-11-20T06:48:02;1;1;
39714;PMS5003;54166;53.172;-6.552;2022-11-20T06:50:30;0;0;
39714;PMS5003;54166;53.172;-6.552;2022-11-20T06:53:00;1;1;
39714;PMS5003;54166;53.172;-6.552;2022-11-20T06:55:28;1;1;
39714;PMS5003;54166;53.172;-6.552;2022-11-20T06:57:56;1;0;
39714;PMS5003;54166;53.172;-6.552;2022-11-20T07:00:24;0;0;
39714;PMS5003;54166;53.172;-6.552;2022-11-20T07:02:52;1;1;
39714;PMS5003;54166;53.172;-6.552;2022-11-20T07:05:19;1;1;
39714;PMS5003;54166;53.172;-6.552;2022-11-20T07:07:46;0;0;
39714;PMS5003;54166;53.172;-6.552;2022-11-20T07:10:13;0;0;
39714;PMS5003;54166;53.172;-6.552;2022-11-20T07:12:40;0;0;
39714;PMS5003;54166;53.172;-6.552;2022-11-20T07:15:07;0;0;
39714;PMS5003;54166;53.172;-6.552;2022-11-20T07:17:35;1;0;
39714;PMS5003;54166;53.172;-6.552;2022-11-20T07:20:02;0;0;
39714;PMS5003;54166;53.172;-6.552;2022-11-20T07:22:29;1;1;
39714;PMS5003;54166;53.172;-6.552;2022-11-20T07:24:56;0;0;
39714;PMS5003;54166;53.172;-6.552;2022-11-20T07:27:23;0;0;
39714;PMS5003;54166;53.172;-6.552;2022-11-20T07:29:50;2;1;
39714;PMS5003;54166;53.172;-6.552;2022-11-20T07:32:17;0;0;
39714;PMS5003;54166;53.172;-6.552;2022-11-20T07:34:44;2;2;
39714;PMS5003;54166;53.172;-6.552;2022-11-20T07:37:11;0;0;
39714;PMS5003;54166;53.172;-6.552;2022-11-20T07:39:38;0;0;
39714;PMS5003;54166;53.172;-6.552;2022-11-20T07:42:05;1;0;
39714;PMS5003;54166;53.172;-6.552;2022-11-20T07:44:33;1;1;
39714;PMS5003;54166;53.172;-6.552;2022-11-20T07:47:00;1;0;
39714;PMS5003;54166;53.172;-6.552;2022-11-20T07:49:28;2;0;
39714;PMS5003;54166;53.172;-6.552;2022-11-20T07:51:55;0;0;
39714;PMS5003;54166;53.172;-6.552;2022-11-20T07:54:22;1;1;
39714;PMS5003;54166;53.172;-6.552;2022-11-20T07:56:50;1;1;
39714;PMS5003;54166;53.172;-6.552;2022-11-20T07:59:17;1;0;
39714;PMS5003;54166;53.172;-6.552;2022-11-20T08:01:43;1;0;
39714;PMS5003;54166;53.172;-6.552;2022-11-20T08:04:10;0;0;
39714;PMS5003;54166;53.172;-6.552;2022-11-20T08:06:37;1;1;
39714;PMS5003;54166;53.172;-6.552;2022-11-20T08:09:04;1;1;
39714;PMS5003;54166;53.172;-6.552;2022-11-20T08:11:31;1;0;
39714;PMS5003;54166;53.172;-6.552;2022-11-20T08:13:58;0;0;
39714;PMS5003;54166;53.172;-6.552;2022-11-20T08:16:25;1;1;
39714;PMS5003;54166;53.172;-6.552;2022-11-20T08:18:52;1;0;
39714;PMS5003;54166;53.172;-6.552;2022-11-20T08:21:19;1;1;
39714;PMS5003;54166;53.172;-6.552;2022-11-20T08:23:47;0;0;
39714;PMS5003;54166;53.172;-6.552;2022-11-20T08:26:14;1;1;
39714;PMS5003;54166;53.172;-6.552;2022-11-20T08:28:41;1;0;
39714;PMS5003;54166;53.172;-6.552;2022-11-20T08:31:08;0;0;
39714;PMS5003;54166;53.172;-6.552;2022-11-20T08:33:35;0;0;
39714;PMS5003;54166;53.172;-6.552;2022-11-20T08:36:02;0;0;
39714;PMS5003;54166;53.172;-6.552;2022-11-20T08:38:32;1;1;
39714;PMS5003;54166;53.172;-6.552;2022-11-20T08:41:00;3;1;
39714;PMS5003;54166;53.172;-6.552;2022-11-20T08:43:28;0;0;
39714;PMS5003;54166;53.172;-6.552;2022-11-20T08:45:56;0;0;
39714;PMS5003;54166;53.172;-6.552;2022-11-20T08:48:23;0;0;
39714;PMS5003;54166;53.172;-6.552;2022-11-20T08:50:50;1;0;
39714;PMS5003;54166;53.172;-6.552;2022-11-20T08:53:17;3;2;
39714;PMS5003;54166;53.172;-6.552;2022-11-20T08:55:44;1;1;
39714;PMS5003;54166;53.172;-6.552;2022-11-20T08:58:11;2;2;
39714;PMS5003;54166;53.172;-6.552;2022-11-20T09:00:38;2;1;
39714;PMS5003;54166;53.172;-6.552;2022-11-20T09:03:05;2;2;
39714;PMS5003;54166;53.172;-6.552;2022-11-20T09:05:32;2;1;
39714;PMS5003;54166;53.172;-6.552;2022-11-20T09:07:59;1;1;
39714;PMS5003;54166;53.172;-6.552;2022-11-20T09:10:27;2;0;
39714;PMS5003;54166;53.172;-6.552;2022-11-20T09:12:55;0;0;
39714;PMS5003;54166;53.172;-6.552;2022-11-20T09:15:23;1;0;
39714;PMS5003;54166;53.172;-6.552;2022-11-20T09:17:51;1;0;
39714;PMS5003;54166;53.172;-6.552;2022-11-20T09:20:19;0;0;
39714;PMS5003;54166;53.172;-6.552;2022-11-20T09:22:46;0;0;
39714;PMS5003;54166;53.172;-6.552;2022-11-20T09:25:14;1;0;
39714;PMS5003;54166;53.172;-6.552;2022-11-20T09:27:42;0;0;
39714;PMS5003;54166;53.172;-6.552;2022-11-20T09:30:10;0;0;
39714;PMS5003;54166;53.172;-6.552;2022-11-20T09:32:38;0;0;
39714;PMS5003;54166;53.172;-6.552;2022-11-20T09:35:06;0;0;
39714;PMS5003;54166;53.172;-6.552;2022-11-20T09:37:34;0;0;
39714;PMS5003;54166;53.172;-6.552;2022-11-20T09:40:01;3;1;
39714;PMS5003;54166;53.172;-6.552;2022-11-20T09:42:32;1;1;
39714;PMS5003;54166;53.172;-6.552;2022-11-20T09:45:16;1;1;
39714;PMS5003;54166;53.172;-6.552;2022-11-20T09:47:56;0;0;
39714;PMS5003;54166;53.172;-6.552;2022-11-20T09:50:32;0;0;
39714;PMS5003;54166;53.172;-6.552;2022-11-20T09:53:07;1;0;
39714;PMS5003;54166;53.172;-6.552;2022-11-20T09:55:42;0;0;
39714;PMS5003;54166;53.172;-6.552;2022-11-20T09:58:14;0;0;
39714;PMS5003;54166;53.172;-6.552;2022-11-20T10:00:48;1;1;
39714;PMS5003;54166;53.172;-6.552;2022-11-20T10:03:17;1;0;
39714;PMS5003;54166;53.172;-6.552;2022-11-20T10:05:54;1;0;
39714;PMS5003;54166;53.172;-6.552;2022-11-20T10:08:23;1;1;
39714;PMS5003;54166;53.172;-6.552;2022-11-20T10:10:56;0;0;
39714;PMS5003;54166;53.172;-6.552;2022-11-20T10:13:34;1;1;
39714;PMS5003;54166;53.172;-6.552;2022-11-20T10:16:11;0;0;
39714;PMS5003;54166;53.172;-6.552;2022-11-20T10:18:53;1;0;
39714;PMS5003;54166;53.172;-6.552;2022-11-20T10:21:34;1;1;
39714;PMS5003;54166;53.172;-6.552;2022-11-20T10:24:18;0;0;
39714;PMS5003;54166;53.172;-6.552;2022-11-20T10:27:02;0;0;
39714;PMS5003;54166;53.172;-6.552;2022-11-20T10:29:39;0;0;
39714;PMS5003;54166;53.172;-6.552;2022-11-20T10:32:11;0;0;
39714;PMS5003;54166;53.172;-6.552;2022-11-20T10:34:44;2;1;
39714;PMS5003;54166;53.172;-6.552;2022-11-20T10:37:18;0;0;
39714;PMS5003;54166;53.172;-6.552;2022-11-20T10:39:50;0;0;
39714;PMS5003;54166;53.172;-6.552;2022-11-20T10:42:26;0;0;
39714;PMS5003;54166;53.172;-6.552;2022-11-20T10:45:01;0;0;
39714;PMS5003;54166;53.172;-6.552;2022-11-20T10:47:40;0;0;
39714;PMS5003;54166;53.172;-6.552;2022-11-20T10:50:09;0;0;
39714;PMS5003;54166;53.172;-6.552;2022-11-20T10:52:41;0;0;
39714;PMS5003;54166;53.172;-6.552;2022-11-20T10:55:22;0;0;
39714;PMS5003;54166;53.172;-6.552;2022-11-20T10:58:01;0;0;
39714;PMS5003;54166;53.172;-6.552;2022-11-20T11:00:36;0;0;
39714;PMS5003;54166;53.172;-6.552;2022-11-20T11:03:07;0;0;
39714;PMS5003;54166;53.172;-6.552;2022-11-20T11:05:48;0;0;
39714;PMS5003;54166;53.172;-6.552;2022-11-20T11:08:20;0;0;
39714;PMS5003;54166;53.172;-6.552;2022-11-20T11:10:48;0;0;
39714;PMS5003;54166;53.172;-6.552;2022-11-20T11:13:20;0;0;
39714;PMS5003;54166;53.172;-6.552;2022-11-20T11:15:48;0;0;
39714;PMS5003;54166;53.172;-6.552;2022-11-20T11:18:26;0;0;
39714;PMS5003;54166;53.172;-6.552;2022-11-20T11:20:55;0;0;
39714;PMS5003;54166;53.172;-6.552;2022-11-20T11:23:28;0;0;
39714;PMS5003;54166;53.172;-6.552;2022-11-20T11:25:59;1;0;
39714;PMS5003;54166;53.172;-6.552;2022-11-20T11:28:28;0;0;
39714;PMS5003;54166;53.172;-6.552;2022-11-20T11:30:55;1;0;
39714;PMS5003;54166;53.172;-6.552;2022-11-20T11:33:23;0;0;
39714;PMS5003;54166;53.172;-6.552;2022-11-20T11:35:53;0;0;
39714;PMS5003;54166;53.172;-6.552;2022-11-20T11:38:22;3;2;
39714;PMS5003;54166;53.172;-6.552;2022-11-20T11:40:55;14;12;
39714;PMS5003;54166;53.172;-6.552;2022-11-20T11:43:24;20;19;
39714;PMS5003;54166;53.172;-6.552;2022-11-20T11:45:54;22;22;
39714;PMS5003;54166;53.172;-6.552;2022-11-20T11:48:22;22;21;
39714;PMS5003;54166;53.172;-6.552;2022-11-20T11:50:50;15;15;
39714;PMS5003;54166;53.172;-6.552;2022-11-20T11:53:17;29;25;
39714;PMS5003;54166;53.172;-6.552;2022-11-20T11:55:47;43;41;
39714;PMS5003;54166;53.172;-6.552;2022-11-20T11:58:24;30;28;
39714;PMS5003;54166;53.172;-6.552;2022-11-20T12:01:03;56;54;
39714;PMS5003;54166;53.172;-6.552;2022-11-20T12:03:37;83;79;
39714;PMS5003;54166;53.172;-6.552;2022-11-20T12:06:06;294;284;
39714;PMS5003;54166;53.172;-6.552;2022-11-20T12:08:41;408;389;
39714;PMS5003;54166;53.172;-6.552;2022-11-20T12:11:16;418;394;
39714;PMS5003;54166;53.172;-6.552;2022-11-20T12:13:52;382;368;
39714;PMS5003;54166;53.172;-6.552;2022-11-20T12:16:24;541;502;
39714;PMS5003;54166;53.172;-6.552;2022-11-20T12:18:52;318;304;
39714;PMS5003;54166;53.172;-6.552;2022-11-20T12:21:20;296;289;
39714;PMS5003;54166;53.172;-6.552;2022-11-20T12:24:02;279;260;
39714;PMS5003;54166;53.172;-6.552;2022-11-20T12:26:43;245;234;
39714;PMS5003;54166;53.172;-6.552;2022-11-20T12:29:23;226;215;
39714;PMS5003;54166;53.172;-6.552;2022-11-20T12:32:06;211;202;
39714;PMS5003;54166;53.172;-6.552;2022-11-20T12:34:53;126;123;
39714;PMS5003;54166;53.172;-6.552;2022-11-20T12:37:30;92;88;
39714;PMS5003;54166;53.172;-6.552;2022-11-20T12:40:13;250;237;
39714;PMS5003;54166;53.172;-6.552;2022-11-20T12:42:53;380;357;
39714;PMS5003;54166;53.172;-6.552;2022-11-20T12:45:38;609;567;
39714;PMS5003;54166;53.172;-6.552;2022-11-20T12:48:19;633;576;
39714;PMS5003;54166;53.172;-6.552;2022-11-20T12:49:01;633;576;
39714;PMS5003;54166;53.172;-6.552;2022-11-20T12:51:44;605;586;
39714;PMS5003;54166;53.172;-6.552;2022-11-20T12:54:27;454;437;
39714;PMS5003;54166;53.172;-6.552;2022-11-20T12:57:09;254;242;
39714;PMS5003;54166;53.172;-6.552;2022-11-20T12:59:49;208;196;
39714;PMS5003;54166;53.172;-6.552;2022-11-20T13:02:29;172;166;
39714;PMS5003;54166;53.172;-6.552;2022-11-20T13:05:09;150;145;
39714;PMS5003;54166;53.172;-6.552;2022-11-20T13:07:46;133;129;
39714;PMS5003;54166;53.172;-6.552;2022-11-20T13:10:19;120;116;
39714;PMS5003;54166;53.172;-6.552;2022-11-20T13:12:53;112;109;
39714;PMS5003;54166;53.172;-6.552;2022-11-20T13:15:31;105;99;
39714;PMS5003;54166;53.172;-6.552;2022-11-20T13:18:08;89;85;
39714;PMS5003;54166;53.172;-6.552;2022-11-20T13:20:41;248;234;
39714;PMS5003;54166;53.172;-6.552;2022-11-20T13:23:09;182;171;
39714;PMS5003;54166;53.172;-6.552;2022-11-20T13:25:37;140;137;
39714;PMS5003;54166;53.172;-6.552;2022-11-20T13:28:25;126;119;
39714;PMS5003;54166;53.172;-6.552;2022-11-20T13:30:55;115;108;
39714;PMS5003;54166;53.172;-6.552;2022-11-20T13:33:25;104;100;
39714;PMS5003;54166;53.172;-6.552;2022-11-20T13:35:57;98;93;
39714;PMS5003;54166;53.172;-6.552;2022-11-20T13:38:26;89;85;
39714;PMS5003;54166;53.172;-6.552;2022-11-20T13:40:55;87;81;
39714;PMS5003;54166;53.172;-6.552;2022-11-20T13:43:27;75;72;
39714;PMS5003;54166;53.172;-6.552;2022-11-20T13:46:00;64;61;
39714;PMS5003;54166;53.172;-6.552;2022-11-20T13:48:30;62;58;
39714;PMS5003;54166;53.172;-6.552;2022-11-20T13:51:10;64;62;
39714;PMS5003;54166;53.172;-6.552;2022-11-20T13:53:52;44;42;
39714;PMS5003;54166;53.172;-6.552;2022-11-20T13:56:34;35;35;
39714;PMS5003;54166;53.172;-6.552;2022-11-20T13:59:11;36;35;
39714;PMS5003;54166;53.172;-6.552;2022-11-20T14:01:50;43;41;
39714;PMS5003;54166;53.172;-6.552;2022-11-20T14:04:18;36;36;
39714;PMS5003;54166;53.172;-6.552;2022-11-20T14:06:52;47;45;
39714;PMS5003;54166;53.172;-6.552;2022-11-20T14:09:28;76;72;
39714;PMS5003;54166;53.172;-6.552;2022-11-20T14:11:57;44;40;
39714;PMS5003;54166;53.172;-6.552;2022-11-20T14:14:26;35;33;
39714;PMS5003;54166;53.172;-6.552;2022-11-20T14:17:05;34;28;
39714;PMS5003;54166;53.172;-6.552;2022-11-20T14:19:33;29;28;
39714;PMS5003;54166;53.172;-6.552;2022-11-20T14:22:10;24;22;
39714;PMS5003;54166;53.172;-6.552;2022-11-20T14:24:45;25;24;
39714;PMS5003;54166;53.172;-6.552;2022-11-20T14:27:14;20;19;
39714;PMS5003;54166;53.172;-6.552;2022-11-20T14:29:44;19;17;
39714;PMS5003;54166;53.172;-6.552;2022-11-20T14:32:14;20;19;
39714;PMS5003;54166;53.172;-6.552;2022-11-20T14:34:44;20;20;
39714;PMS5003;54166;53.172;-6.552;2022-11-20T14:37:16;19;19;
39714;PMS5003;54166;53.172;-6.552;2022-11-20T14:39:48;22;21;
39714;PMS5003;54166;53.172;-6.552;2022-11-20T14:42:19;20;20;
39714;PMS5003;54166;53.172;-6.552;2022-11-20T14:44:47;17;17;
39714;PMS5003;54166;53.172;-6.552;2022-11-20T14:47:17;17;16;
39714;PMS5003;54166;53.172;-6.552;2022-11-20T14:49:48;16;14;
39714;PMS5003;54166;53.172;-6.552;2022-11-20T14:52:17;15;15;
39714;PMS5003;54166;53.172;-6.552;2022-11-20T14:54:47;12;9;
39714;PMS5003;54166;53.172;-6.552;2022-11-20T14:57:24;11;11;
39714;PMS5003;54166;53.172;-6.552;2022-11-20T15:00:04;11;10;
39714;PMS5003;54166;53.172;-6.552;2022-11-20T15:02:34;11;11;
39714;PMS5003;54166;53.172;-6.552;2022-11-20T15:05:05;14;13;
39714;PMS5003;54166;53.172;-6.552;2022-11-20T15:07:33;13;12;
39714;PMS5003;54166;53.172;-6.552;2022-11-20T15:10:03;11;11;
39714;PMS5003;54166;53.172;-6.552;2022-11-20T15:12:34;8;8;
39714;PMS5003;54166;53.172;-6.552;2022-11-20T15:15:04;10;10;
39714;PMS5003;54166;53.172;-6.552;2022-11-20T15:17:32;8;8;
39714;PMS5003;54166;53.172;-6.552;2022-11-20T15:20:04;8;8;
39714;PMS5003;54166;53.172;-6.552;2022-11-20T15:22:38;8;7;
39714;PMS5003;54166;53.172;-6.552;2022-11-20T15:25:11;7;7;
39714;PMS5003;54166;53.172;-6.552;2022-11-20T15:27:39;9;8;
39714;PMS5003;54166;53.172;-6.552;2022-11-20T15:30:11;7;6;
39714;PMS5003;54166;53.172;-6.552;2022-11-20T15:32:40;9;8;
39714;PMS5003;54166;53.172;-6.552;2022-11-20T15:35:08;9;8;
39714;PMS5003;54166;53.172;-6.552;2022-11-20T15:37:36;6;6;
39714;PMS5003;54166;53.172;-6.552;2022-11-20T15:40:03;7;7;
39714;PMS5003;54166;53.172;-6.552;2022-11-20T15:42:32;6;5;
39714;PMS5003;54166;53.172;-6.552;2022-11-20T15:45:01;6;6;
39714;PMS5003;54166;53.172;-6.552;2022-11-20T15:47:29;5;5;
39714;PMS5003;54166;53.172;-6.552;2022-11-20T15:49:59;8;6;
39714;PMS5003;54166;53.172;-6.552;2022-11-20T15:52:26;3;3;
39714;PMS5003;54166;53.172;-6.552;2022-11-20T15:54:54;6;6;
39714;PMS5003;54166;53.172;-6.552;2022-11-20T15:57:21;5;5;
39714;PMS5003;54166;53.172;-6.552;2022-11-20T15:59:48;6;6;
39714;PMS5003;54166;53.172;-6.552;2022-11-20T16:02:15;4;4;
39714;PMS5003;54166;53.172;-6.552;2022-11-20T16:04:43;9;6;
39714;PMS5003;54166;53.172;-6.552;2022-11-20T16:07:09;6;6;
39714;PMS5003;54166;53.172;-6.552;2022-11-20T16:09:36;6;6;
39714;PMS5003;54166;53.172;-6.552;2022-11-20T16:12:04;4;4;
39714;PMS5003;54166;53.172;-6.552;2022-11-20T16:14:31;6;6;
39714;PMS5003;54166;53.172;-6.552;2022-11-20T16:16:58;6;6;
39714;PMS5003;54166;53.172;-6.552;2022-11-20T16:19:25;4;4;
39714;PMS5003;54166;53.172;-6.552;2022-11-20T16:21:52;5;4;
39714;PMS5003;54166;53.172;-6.552;2022-11-20T16:24:21;5;4;
39714;PMS5003;54166;53.172;-6.552;2022-11-20T16:26:49;7;6;
39714;PMS5003;54166;53.172;-6.552;2022-11-20T16:29:16;3;3;
39714;PMS5003;54166;53.172;-6.552;2022-11-20T16:31:42;5;4;
39714;PMS5003;54166;53.172;-6.552;2022-11-20T16:34:09;5;5;
39714;PMS5003;54166;53.172;-6.552;2022-11-20T16:36:38;4;4;
39714;PMS5003;54166;53.172;-6.552;2022-11-20T16:39:06;3;3;
39714;PMS5003;54166;53.172;-6.552;2022-11-20T16:41:33;4;4;